Flight Track Log - Related Links

Times and Time Zones

All times are in EDT time to prevent confusion due to time zone crossing. See the BOE512 flight status page for this flight to view local times or setup timezone preferences in your user account.

Time Position Orientation Groundspeed Altitude Reporting Facility
EDT Latitude Longitude Course Direction KTS MPH feet Rate Location/Type
Tue 05:58:05 PM 47.2400 -119.3397 337° Northwest 172 198 3,600  Level Seattle Center
Tue 05:59:06 PM 47.2650 -119.4319 292° West 248 285 5,700 2,754 Climbing Seattle Center
Tue 06:00:07 PM 47.2997 -119.5383 296° West 283 326 9,200 2,380 Climbing Seattle Center
Tue 06:01:07 PM 47.3358 -119.6494 296° West 300 345 10,500 645 Climbing Seattle Center
Tue 06:02:00 PM 47.4049 -119.9406 295° West  Level FlightAware Approximate
Tue 06:02:08 PM 47.3719 -119.7631 295° West 304 350 10,500  Level Seattle Center
Tue 06:03:09 PM 47.4081 -119.8744 296° West 301 346 10,500 -49 Level Seattle Center
Tue 06:04:10 PM 47.4439 -119.9850 296° West 301 346 10,400  Descending Seattle Center
Tue 06:05:11 PM 47.4792 -120.0964 295° West 298 343 10,500 49 Climbing Seattle Center
Tue 06:06:12 PM 47.5125 -120.2011 295° West 301 346 10,500 27 Level Seattle Center
Tue 06:08:00 PM 47.5659 -120.3986 292° West  Level FlightAware Approximate
Tue 06:08:50 PM 47.6133 -120.5267 292° West 307 353 10,600  Level Seattle Center
Tue 06:14:37 PM 47.8470 -121.2770 292° West 371 427 12,600 310 Climbing FlightAware ADS-B
Tue 06:15:17 PM 47.8780 -121.3710 296° West 370 426 12,600  Level FlightAware ADS-B
Tue 06:16:02 PM 47.9100 -121.4770 294° West 340 391 12,600  Level FlightAware ADS-B
Tue 06:16:42 PM 47.9340 -121.5560 294° West 314 361 12,600 -75 Level FlightAware ADS-B
Tue 06:17:22 PM 47.9570 -121.6340 294° West 311 358 12,500 -847 Descending FlightAware ADS-B
Tue 06:18:07 PM 47.9830 -121.7210 294° West 304 350 11,400 -1,412 Descending FlightAware ADS-B
Tue 06:18:47 PM 48.0000 -121.8040 287° West 297 342 10,500 -1,520 Descending FlightAware ADS-B
Tue 06:19:22 PM 47.9970 -121.8700 266° West 286 329 9,500 -1,624 Descending FlightAware ADS-B
Tue 06:20:12 PM 48.0080 -121.9640 280° West 284 327 8,200 -975 Descending FlightAware ADS-B
Tue 06:20:42 PM 48.0130 -122.0140 279° West 284 327 8,200 -4,080 Level FlightAware ADS-B
Tue 06:21:02 PM 48.0230 -122.0650 286° West 266 306 4,800 -4,691 Descending FlightAware ADS-B
Tue 06:21:37 PM 48.0300 -122.1220 280° West 270 311 3,900 -1,200 Descending FlightAware ADS-B
Tue 06:22:02 PM 48.0300 -122.1660 270° West 251 289 3,600 -360 Descending FlightAware ADS-B
Tue 06:22:27 PM 48.0290 -122.2060 268° West 251 289 3,600 -1,377 Level FlightAware ADS-B
Tue 06:23:03 PM 48.0144 -122.2694 268° West 235 270 2,200 -1,457 Descending Seattle Center
Tue 06:23:37 PM 47.9881 -122.2903 208° Southwest 168 193 1,900 -492 Descending Seattle Center
Tue 06:24:04 PM 47.9708 -122.2881 175° South 164 189 1,700 -358 Descending Seattle Center
Tue 06:24:44 PM 47.9469 -122.3033 203° Southwest 159 183 1,500 -197 Descending Seattle Center
Tue 06:25:05 PM 47.9542 -122.3186 305° West 171 197 1,500 -197 Level Seattle Center
Tue 06:25:45 PM 47.9758 -122.3039 24° Northeast 180 207 1,300 -197 Descending Seattle Center
Tue 06:26:06 PM 47.9750 -122.2869 94° East 152 175 1,300 -295 Level Seattle Center
Tue 06:26:46 PM 47.9453 -122.2878 181° South 150 173 1,000 -393 Descending Seattle Center
Tue 06:27:07 PM 47.9372 -122.2864 173° South 140 161 900 -220 Descending Seattle Center
Tue 06:28:08 PM 47.9022 -122.2850 178° South 138 159 700 -197 Descending Seattle Center

Login

Don't have an account? Register now (free) for customized features, flight alerts, and more!